Time;durP1;ratioP1;P1;durP2;ratioP2;P2;SDS_P1;SDS_P2;PMS_P1;PMS_P2;Temp;Humidity;BMP_temperature;BMP_pressure;BME280_temperature;BME280_humidity;BME280_pressure;Samples;Min_cycle;Max_cycle;Signal;HPM_P1;HPM_P2
2022/04/11 00:00:09;;;;;;;11.65;5.00;;;4.80;99.90;;;4.67;75.45;101378.97;5227518;28;20056;-70
2022/04/11 00:02:41;;;;;;;11.73;4.80;;;4.80;99.90;;;4.66;75.42;101377.19;5227299;28;20141;-70
2022/04/11 00:05:13;;;;;;;10.55;4.72;;;4.80;99.90;;;4.66;75.59;101384.94;5228080;28;20067;-69
2022/04/11 00:07:47;;;;;;;7.28;3.97;;;4.80;99.90;;;4.66;75.48;101377.19;5227658;28;20052;-70
2022/04/11 00:10:19;;;;;;;10.63;4.32;;;4.80;99.90;;;4.63;75.59;101381.38;5227503;28;20392;-71
2022/04/11 00:12:51;;;;;;;7.78;3.53;;;4.80;99.90;;;4.63;75.75;101375.31;5227745;28;20497;-70
2022/04/11 00:15:23;;;;;;;6.85;3.42;;;4.80;99.90;;;4.60;76.19;101378.56;5227862;28;20505;-70
2022/04/11 00:17:55;;;;;;;6.10;3.35;;;4.70;99.90;;;4.58;76.31;101380.16;5227523;28;20049;-70
2022/04/11 00:20:27;;;;;;;6.40;3.60;;;4.70;99.90;;;4.56;76.44;101376.59;5227331;28;20055;-71
2022/04/11 00:23:01;;;;;;;9.35;3.40;;;4.70;99.90;;;4.56;76.42;101380.81;5206325;28;20092;-70
2022/04/11 00:25:33;;;;;;;6.93;3.47;;;4.70;99.90;;;4.56;76.70;101378.25;5207183;28;20049;-71
2022/04/11 00:28:06;;;;;;;8.38;3.05;;;4.70;99.90;;;4.52;76.63;101377.16;5206738;28;20050;-70
2022/04/11 00:30:38;;;;;;;5.50;2.88;;;4.70;99.90;;;4.53;76.59;101370.28;5206440;28;20137;-70
2022/04/11 00:33:10;;;;;;;6.50;2.83;;;4.70;99.90;;;4.50;76.68;101363.25;5206748;28;20049;-70
2022/04/11 00:35:42;;;;;;;5.82;2.70;;;4.60;99.90;;;4.50;76.96;101359.75;5206970;28;20050;-71
2022/04/11 00:38:15;;;;;;;7.60;2.78;;;4.70;99.90;;;4.50;77.00;101362.31;5206707;28;20053;-71
2022/04/11 00:40:47;;;;;;;6.75;2.67;;;4.60;99.90;;;4.48;77.22;101357.06;5206787;28;20060;-70
2022/04/11 00:43:36;;;;;;;5.35;2.72;;;4.70;99.90;;;4.48;77.44;101364.81;5206093;28;20529;-71
2022/04/11 00:46:10;;;;;;;5.78;2.70;;;4.60;99.90;;;4.47;77.11;101363.03;5206238;28;20049;-70
2022/04/11 00:48:42;;;;;;;6.75;2.92;;;4.60;99.90;;;4.48;77.27;101356.16;5205941;28;20046;-70
2022/04/11 00:51:20;;;;;;;5.00;2.90;;;4.60;99.90;;;4.45;77.30;101354.28;5206333;28;20141;-71
2022/04/11 00:53:58;;;;;;;5.22;2.75;;;4.60;99.90;;;4.46;77.35;101358.66;5206120;28;20060;-71
2022/04/11 00:56:30;;;;;;;4.53;2.22;;;4.60;99.90;;;4.45;77.40;101351.72;5206469;28;20136;-71
2022/04/11 00:59:03;;;;;;;5.68;2.60;;;4.60;99.90;;;4.44;77.35;101352.50;5206468;28;20050;-70
2022/04/11 01:01:36;;;;;;;6.40;2.65;;;4.60;99.90;;;4.43;77.57;101352.38;5217727;28;20049;-71
2022/04/11 01:04:23;;;;;;;6.78;3.20;;;4.60;99.90;;;4.45;77.78;101346.53;5227030;28;20048;-70
2022/04/11 01:06:55;;;;;;;5.70;2.92;;;4.60;99.90;;;4.43;78.16;101342.94;5226669;28;20049;-70
2022/04/11 01:09:29;;;;;;;6.05;2.72;;;4.60;99.90;;;4.44;77.84;101346.44;5227104;28;20060;-70
2022/04/11 01:12:03;;;;;;;7.10;2.90;;;4.60;99.90;;;4.43;78.23;101337.78;5226085;28;20049;-69
2022/04/11 01:14:35;;;;;;;4.93;2.88;;;4.60;99.90;;;4.44;78.10;101343.88;5226509;28;20084;-70
2022/04/11 01:17:08;;;;;;;4.50;2.60;;;4.60;99.90;;;4.45;78.16;101335.31;5226598;28;20045;-71
2022/04/11 01:19:40;;;;;;;5.38;3.10;;;4.60;99.90;;;4.46;77.93;101335.44;5226780;28;20228;-71
2022/04/11 01:22:13;;;;;;;4.20;2.72;;;4.60;99.90;;;4.48;78.22;101332.94;5225959;28;20055;-70
2022/04/11 01:24:45;;;;;;;4.50;2.67;;;4.60;99.90;;;4.49;78.01;101325.28;5225991;28;20044;-71
2022/04/11 01:27:18;;;;;;;6.78;3.03;;;4.60;99.90;;;4.53;78.06;101326.41;5226264;28;20071;-70
2022/04/11 01:29:50;;;;;;;4.65;2.75;;;4.60;99.90;;;4.54;77.67;101326.50;5226126;28;20056;-70
2022/04/11 01:32:22;;;;;;;5.72;2.83;;;4.70;99.90;;;4.56;78.22;101327.53;5225675;28;20059;-72
2022/04/11 01:34:54;;;;;;;4.53;2.38;;;4.70;99.90;;;4.56;78.55;101319.78;5225895;28;20052;-70
2022/04/11 01:37:28;;;;;;;5.88;2.75;;;4.70;99.90;;;4.61;78.51;101322.63;5225793;28;20095;-70
2022/04/11 01:40:00;;;;;;;5.55;2.63;;;4.70;99.90;;;4.62;78.35;101321.84;5226425;28;20604;-70
2022/04/11 01:42:32;;;;;;;4.85;2.58;;;4.70;99.90;;;4.64;78.74;101320.28;5225568;28;20045;-71
2022/04/11 01:45:09;;;;;;;3.67;2.40;;;4.70;99.90;;;4.65;78.36;101314.31;5226013;28;20051;-73
2022/04/11 01:47:42;;;;;;;4.60;2.42;;;4.80;99.90;;;4.68;78.55;101317.09;5225815;28;20053;-72
2022/04/11 01:50:14;;;;;;;5.88;2.92;;;4.80;99.90;;;4.70;78.22;101317.22;5225961;28;20483;-71
2022/04/11 01:52:47;;;;;;;4.20;2.38;;;4.80;99.90;;;4.71;78.37;101313.84;5225671;28;20051;-70
2022/04/11 01:55:19;;;;;;;3.33;2.08;;;4.80;99.90;;;4.74;78.45;101308.84;5226160;28;20478;-70
2022/04/11 01:57:51;;;;;;;4.82;2.58;;;4.80;99.90;;;4.76;78.03;101309.84;5225579;28;20055;-70
2022/04/11 02:00:23;;;;;;;4.88;2.95;;;4.90;99.90;;;4.78;77.72;101316.03;5225468;28;20141;-72
2022/04/11 02:02:55;;;;;;;3.33;2.30;;;4.90;99.90;;;4.79;77.64;101313.53;5225840;28;20049;-70
2022/04/11 02:05:28;;;;;;;3.35;2.22;;;4.90;99.90;;;4.81;77.64;101300.72;5225907;28;20375;-71
2022/04/11 02:08:03;;;;;;;4.55;2.45;;;4.90;99.90;;;4.81;77.36;101300.72;5225979;28;20052;-71
2022/04/11 02:10:36;;;;;;;4.95;2.42;;;4.90;99.90;;;4.81;77.41;101298.13;5225412;28;20416;-70
2022/04/11 02:13:09;;;;;;;5.97;2.63;;;4.90;99.90;;;4.81;77.56;101303.28;5225589;28;20045;-70
2022/04/11 02:15:40;;;;;;;7.50;3.03;;;4.90;99.90;;;4.80;77.45;101302.41;5225524;28;20049;-70
2022/04/11 02:18:12;;;;;;;4.82;2.50;;;4.90;99.90;;;4.82;77.24;101297.34;5226199;28;20049;-71
2022/04/11 02:20:44;;;;;;;3.95;2.45;;;4.90;99.90;;;4.82;77.29;101297.34;5226334;28;20052;-72
2022/04/11 02:23:18;;;;;;;6.47;2.40;;;4.90;99.90;;;4.84;76.43;101300.94;5226340;28;20053;-73
2022/04/11 02:25:50;;;;;;;4.10;2.20;;;4.90;99.90;;;4.83;74.83;101300.03;5226613;28;20041;-73
2022/04/11 02:28:22;;;;;;;4.88;2.42;;;4.90;99.90;;;4.88;73.88;101300.31;5226537;28;20500;-74
2022/04/11 02:30:54;;;;;;;3.67;2.20;;;4.90;99.90;;;4.93;73.65;101298.03;5226175;28;20049;-73
2022/04/11 02:33:26;;;;;;;4.53;2.45;;;5.00;99.90;;;4.97;73.15;101292.28;5353359;23;20051;-69
2022/04/11 02:35:58;;;;;;;6.20;2.70;;;5.10;99.90;;;4.99;73.05;101291.59;5224702;28;20051;-70
2022/04/11 02:38:31;;;;;;;6.95;2.38;;;5.10;99.90;;;4.99;71.36;101291.59;5224924;28;20049;-70
2022/04/11 02:41:03;;;;;;;5.78;2.28;;;5.10;99.90;;;5.04;71.48;101290.19;5225060;28;20051;-71
2022/04/11 02:43:35;;;;;;;4.13;1.98;;;5.10;99.90;;;5.04;70.30;101295.38;5225144;28;20048;-71
2022/04/11 02:46:07;;;;;;;2.72;1.95;;;5.10;99.90;;;5.07;70.04;101295.56;5251409;22;20049;-89
2022/04/11 02:48:39;;;;;;;6.28;2.80;;;5.20;99.90;;;5.08;68.99;101296.44;5243938;28;20049;-91
2022/04/11 02:51:11;;;;;;;6.03;2.22;;;5.20;99.90;;;5.11;68.94;101294.97;5252183;28;20037;-90
2022/04/11 02:53:45;;;;;;;5.50;2.25;;;5.30;99.90;;;5.16;68.72;101303.03;5252295;28;20049;-90
2022/04/11 02:56:17;;;;;;;3.63;2.35;;;5.30;99.90;;;5.14;68.82;101295.16;5242129;28;20064;-91
2022/04/11 02:58:50;;;;;;;5.53;2.40;;;5.30;99.90;;;5.13;69.32;101290.78;5233373;28;20045;-90
2022/04/11 03:01:22;;;;;;;5.45;2.38;;;5.30;99.90;;;5.16;69.54;101295.28;5234826;28;20049;-90
2022/04/11 03:03:54;;;;;;;4.18;2.28;;;5.30;99.90;;;5.14;69.84;101292.56;5233408;28;20128;-90
2022/04/11 03:06:26;;;;;;;4.35;2.33;;;5.20;99.90;;;5.05;69.39;101271.31;5232807;28;20069;-91
2022/04/11 03:09:00;;;;;;;4.55;2.50;;;5.20;99.90;;;5.14;69.02;101284.81;5233699;28;20051;-90
2022/04/11 03:11:32;;;;;;;3.58;2.13;;;5.20;99.90;;;5.17;68.71;101281.56;5236918;28;20049;-90
2022/04/11 03:14:07;;;;;;;3.78;2.10;;;5.30;99.90;;;5.10;68.65;101267.34;5237796;28;20045;-90
2022/04/11 03:16:40;;;;;;;6.78;2.70;;;5.30;99.90;;;5.20;68.82;101280.84;5236873;28;20051;-91
2022/04/11 03:19:12;;;;;;;7.30;2.40;;;5.20;99.90;;;5.17;69.02;101278.97;5237906;28;20108;-90
2022/04/11 03:21:44;;;;;;;6.18;2.60;;;5.30;99.90;;;5.13;69.29;101279.56;5237529;28;20048;-91
2022/04/11 03:24:18;;;;;;;7.38;2.67;;;5.30;99.90;;;5.16;69.33;101283.25;5237285;28;20080;-91
2022/04/11 03:26:50;;;;;;;4.57;2.13;;;5.20;99.90;;;5.10;69.90;101266.44;5236229;28;20132;-91
2022/04/11 03:29:22;;;;;;;4.65;2.58;;;5.20;99.90;;;5.14;70.04;101282.22;5237439;28;20491;-92
2022/04/11 03:31:55;;;;;;;4.20;2.63;;;5.20;99.90;;;5.15;70.30;101286.63;5236233;28;20053;-91
2022/04/11 03:34:27;;;;;;;4.43;2.13;;;5.20;99.90;;;5.14;70.76;101282.22;5253263;28;20045;-88
2022/04/11 03:36:59;;;;;;;4.43;2.25;;;5.20;99.90;;;5.13;70.29;101285.63;5248410;28;20048;-90
2022/04/11 03:39:32;;;;;;;4.82;2.60;;;5.20;99.90;;;5.13;69.17;101279.56;5237715;28;20079;-91
2022/04/11 03:42:06;;;;;;;4.82;2.28;;;5.20;99.90;;;5.14;68.56;101282.22;5235486;28;20057;-90
2022/04/11 03:44:42;;;;;;;6.30;2.42;;;5.20;99.90;;;5.17;68.17;101281.56;5236326;28;20072;-91
2022/04/11 03:47:14;;;;;;;4.85;2.35;;;5.30;99.90;;;5.18;66.58;101289.41;5237995;28;20131;-92
2022/04/11 03:49:47;;;;;;;5.63;1.90;;;5.30;99.90;;;5.23;66.84;101286.22;5237422;28;20525;-91
2022/04/11 03:52:19;;;;;;;2.17;1.83;;;5.30;99.90;;;5.21;66.88;101282.63;5237553;28;20060;-89
2022/04/11 03:54:53;;;;;;;3.50;2.47;;;5.40;99.90;;;5.26;66.23;101294.16;5237504;28;20045;-87
2022/04/11 03:57:25;;;;;;;3.75;2.22;;;5.40;99.90;;;5.28;65.76;101289.97;5238012;28;20056;-88
2022/04/11 03:59:57;;;;;;;3.10;1.80;;;5.40;99.90;;;5.29;65.86;101286.63;5238168;28;20045;-86
2022/04/11 04:02:29;;;;;;;3.30;1.88;;;5.40;99.90;;;5.33;65.96;101294.63;5237155;28;20114;-88
2022/04/11 04:05:01;;;;;;;5.43;2.28;;;5.50;99.90;;;5.33;66.31;101292.06;5236269;28;20041;-88
2022/04/11 04:07:33;;;;;;;6.47;2.20;;;5.40;99.90;;;5.32;65.50;101289.38;5235663;28;20079;-86
2022/04/11 04:10:08;;;;;;;5.07;2.08;;;5.40;99.90;;;5.28;64.84;101293.47;5235835;28;20045;-87
2022/04/11 04:12:41;;;;;;;4.55;2.33;;;5.40;99.90;;;5.29;64.86;101287.50;5236120;28;20045;-86
2022/04/11 04:15:13;;;;;;;3.00;1.95;;;5.40;99.90;;;5.28;64.45;101289.97;5235898;28;20044;-87
2022/04/11 04:17:45;;;;;;;4.75;2.47;;;5.50;99.90;;;5.23;63.92;101288.81;5235493;28;20055;-87
2022/04/11 04:20:17;;;;;;;5.60;2.00;;;5.40;99.40;;;5.21;63.90;101280.94;5236214;28;20076;-87
2022/04/11 04:22:49;;;;;;;3.08;1.83;;;5.40;99.60;;;5.21;64.06;101269.69;5235048;28;20045;-87
2022/04/11 04:25:23;;;;;;;3.80;2.08;;;5.50;99.60;;;5.28;63.95;101284.78;5236218;28;20059;-87
2022/04/11 04:27:55;;;;;;;6.35;2.10;;;5.40;99.70;;;5.25;64.48;101277.75;5236038;28;20052;-87
2022/04/11 04:30:28;;;;;;;5.50;1.90;;;5.40;99.80;;;5.23;63.34;101283.63;5236140;28;20063;-88
2022/04/11 04:33:01;;;;;;;4.78;2.15;;;5.40;99.40;;;5.23;63.71;101278.47;5235739;28;20052;-87
2022/04/11 04:35:33;;;;;;;4.93;2.33;;;5.40;99.20;;;5.20;63.09;101275.66;5235742;28;20041;-90
2022/04/11 04:38:06;;;;;;;5.90;3.40;;;5.40;99.20;;;5.20;63.51;101273.09;5235565;28;20114;-88
2022/04/11 04:40:39;;;;;;;5.05;2.53;;;5.40;99.30;;;5.20;63.88;101270.50;5235243;28;20586;-88
2022/04/11 04:43:11;;;;;;;5.55;2.28;;;5.40;99.40;;;5.12;62.90;101276.06;5234933;28;20494;-88
2022/04/11 04:45:43;;;;;;;5.80;2.50;;;5.40;98.90;;;5.12;62.98;101273.50;5236166;28;20049;-88
2022/04/11 04:48:16;;;;;;;4.07;2.80;;;5.40;98.80;;;5.10;62.86;101272.50;5235773;28;20049;-91
2022/04/11 04:50:48;;;;;;;3.42;2.22;;;5.40;98.70;;;5.09;62.82;101278.47;5235635;28;20132;-90
2022/04/11 04:53:20;;;;;;;3.05;1.88;;;5.30;98.70;;;5.02;62.48;101262.47;5236167;28;20045;-91
2022/04/11 04:55:53;;;;;;;5.47;2.30;;;5.30;98.50;;;5.00;62.50;101272.69;5235507;28;20510;-91
2022/04/11 04:58:25;;;;;;;5.07;2.55;;;5.30;98.40;;;4.98;62.80;101279.47;5236317;28;20066;-91
2022/04/11 05:00:58;;;;;;;7.95;2.50;;;5.30;98.50;;;4.97;62.64;101277.69;5235859;28;20131;-91
2022/04/11 05:03:31;;;;;;;5.32;2.28;;;5.30;98.40;;;4.96;62.60;101275.00;5235609;28;20136;-92
2022/04/11 05:06:04;;;;;;;2.40;1.90;;;5.20;98.40;;;4.94;62.73;101282.63;5235603;28;20469;-90
2022/04/11 05:08:36;;;;;;;5.85;2.40;;;5.20;98.40;;;4.90;62.76;101273.81;5236001;28;20079;-91
2022/04/11 05:11:09;;;;;;;5.03;2.10;;;5.20;98.40;;;4.91;62.83;101279.88;5235833;28;20060;-92
2022/04/11 05:13:42;;;;;;;5.13;2.03;;;5.20;98.40;;;4.94;62.98;101277.47;5235223;28;20044;-91
2022/04/11 05:16:15;;;;;;;4.70;2.30;;;5.20;98.50;;;4.95;63.13;101278.34;5235827;28;20049;-92
2022/04/11 05:18:48;;;;;;;5.28;2.45;;;5.20;98.60;;;4.98;63.54;101276.00;5235720;28;20056;-92
2022/04/11 05:21:20;;;;;;;4.63;2.13;;;5.20;98.90;;;4.99;63.11;101275.19;5235822;28;20053;-91
2022/04/11 05:23:52;;;;;;;3.58;2.35;;;5.20;98.70;;;5.05;63.43;101279.06;5218344;28;20055;-92
2022/04/11 05:26:26;;;;;;;7.10;2.22;;;5.30;98.90;;;4.99;63.31;101265.75;5236817;28;20052;-91
2022/04/11 05:28:58;;;;;;;4.13;2.22;;;5.30;99.00;;;5.11;63.84;101279.47;5236186;28;20549;-90
2022/04/11 05:31:31;;;;;;;4.28;2.05;;;5.40;99.20;;;5.13;63.79;101272.69;5237631;28;20136;-92
2022/04/11 05:34:05;;;;;;;5.30;2.53;;;5.30;99.50;;;5.11;64.28;101256.19;5234927;28;20080;-92
2022/04/11 05:36:37;;;;;;;3.90;2.20;;;5.40;99.60;;;5.23;64.23;101276.78;5235699;28;20055;-92
2022/04/11 05:39:09;;;;;;;3.90;2.03;;;5.40;99.70;;;5.25;64.53;101282.94;5234965;28;20132;-88
2022/04/11 05:41:43;;;;;;;4.82;2.50;;;5.40;99.80;;;5.32;64.27;101272.19;5234941;28;20045;-87
2022/04/11 05:44:16;;;;;;;4.13;2.42;;;5.40;99.80;;;5.42;64.63;101278.84;5234949;28;20055;-90
2022/04/11 05:46:52;;;;;;;3.38;2.28;;;5.50;99.90;;;5.47;64.34;101273.94;5244445;28;20028;-93
2022/04/11 05:49:25;;;;;;;2.90;2.17;;;5.60;99.90;;;5.57;64.99;101279.78;5245377;28;20268;-88
2022/04/11 05:51:57;;;;;;;5.57;2.53;;;5.60;99.90;;;5.63;64.81;101272.41;5234764;28;20170;-90
2022/04/11 05:54:29;;;;;;;5.20;2.67;;;5.70;99.90;;;5.61;64.20;101279.19;5234768;28;20108;-91
2022/04/11 05:57:03;;;;;;;5.47;2.63;;;5.70;99.90;;;5.78;63.89;101281.91;5234067;28;20495;-90
2022/04/11 05:59:35;;;;;;;4.45;2.40;;;5.80;99.90;;;5.96;63.78;101275.31;5236786;28;20067;-86
2022/04/11 06:02:09;;;;;;;5.10;3.17;;;6.00;99.80;;;7.14;62.66;101285.69;5233428;28;20422;-81
2022/04/11 06:04:41;;;;;;;3.60;2.08;;;6.40;99.90;;;9.08;56.87;101267.34;5230521;28;20140;-81
2022/04/11 06:07:13;;;;;;;4.28;2.42;;;7.50;99.00;;;11.14;52.43;101270.38;5227704;28;20057;-80
2022/04/11 06:09:45;;;;;;;4.05;2.30;;;8.90;97.20;;;13.16;47.48;101275.94;5229221;28;20071;-81
2022/04/11 06:12:20;;;;;;;4.13;2.30;;;10.40;93.90;;;14.99;42.50;101271.53;5229206;28;20512;-81
2022/04/11 06:14:54;;;;;;;2.97;1.77;;;11.90;86.50;;;16.58;38.82;101283.75;5229734;28;20508;-80
2022/04/11 06:17:26;;;;;;;3.60;3.00;;;13.40;76.30;;;17.52;35.83;101279.13;5229233;28;20094;-81
2022/04/11 06:19:59;;;;;;;3.80;2.10;;;14.50;68.00;;;18.52;34.05;101268.06;5229144;28;20053;-82
2022/04/11 06:22:31;;;;;;;2.92;1.80;;;15.40;63.50;;;19.19;31.64;101278.34;5229722;28;20041;-82
2022/04/11 06:25:08;;;;;;;4.20;2.10;;;16.30;58.30;;;20.19;29.71;101278.00;5230270;28;20059;-83
2022/04/11 06:27:41;;;;;;;4.63;1.92;;;17.20;55.80;;;21.00;29.02;101277.28;5229754;28;20458;-82
2022/04/11 06:30:14;;;;;;;5.05;2.25;;;17.90;54.30;;;21.78;28.20;101269.16;5243363;28;20522;-83
2022/04/11 06:32:46;;;;;;;6.65;2.33;;;18.60;52.90;;;22.25;27.20;101268.13;5234054;28;20045;-83
2022/04/11 06:35:18;;;;;;;5.25;2.10;;;19.20;51.40;;;22.53;26.61;101274.13;5238882;28;20534;-82
2022/04/11 06:37:50;;;;;;;4.45;2.33;;;19.50;49.80;;;21.70;26.22;101273.63;5238809;28;20044;-82
2022/04/11 06:40:22;;;;;;;5.15;2.08;;;19.30;47.80;;;21.83;26.55;101270.91;5245277;28;20556;-82
2022/04/11 06:42:55;;;;;;;4.72;1.77;;;19.30;48.80;;;21.43;28.18;101270.16;5229497;28;20045;-86
2022/04/11 06:45:27;;;;;;;4.43;1.90;;;19.20;50.50;;;20.96;27.86;101272.84;5236929;28;20049;-84
2022/04/11 06:48:00;;;;;;;6.55;2.47;;;19.00;49.20;;;20.96;28.72;101272.84;5247142;28;20052;-88
2022/04/11 06:50:32;;;;;;;3.83;2.08;;;19.00;50.50;;;21.52;28.01;101271.94;5233723;28;20037;-85
2022/04/11 06:53:05;;;;;;;3.42;2.25;;;19.20;49.80;;;22.56;26.56;101268.78;5254587;28;20122;-87
2022/04/11 06:55:38;;;;;;;5.15;2.25;;;19.80;48.70;;;22.96;25.94;101269.41;5245697;28;20120;-85
2022/04/11 06:58:11;;;;;;;5.68;2.03;;;20.30;48.00;;;23.63;24.85;101274.06;5249442;28;20041;-84
2022/04/11 07:00:44;;;;;;;4.35;2.20;;;20.80;46.80;;;23.43;24.92;101270.72;5248784;28;20037;-85
2022/04/11 07:03:16;;;;;;;5.53;2.20;;;21.00;46.00;;;23.23;24.62;101273.59;5249532;28;20040;-84
2022/04/11 07:05:48;;;;;;;4.20;2.05;;;21.00;45.20;;;22.47;25.39;101272.38;5258789;28;20048;-83
2022/04/11 07:08:20;;;;;;;4.85;3.10;;;20.70;45.50;;;22.26;26.21;101272.53;5259156;28;20059;-86
2022/04/11 07:10:52;;;;;;;6.85;2.97;;;20.50;46.30;;;22.43;25.63;101268.88;5259993;28;20049;-83
2022/04/11 07:13:26;;;;;;;4.63;1.92;;;20.50;45.90;;;21.74;25.97;101265.66;5261740;28;20051;-81
2022/04/11 07:15:58;;;;;;;3.80;2.05;;;20.20;46.00;;;22.08;26.17;101265.50;5261256;28;20054;-81
2022/04/11 07:18:31;;;;;;;3.50;2.10;;;20.20;46.20;;;21.92;26.52;101262.94;5263650;28;20524;-84
2022/04/11 07:21:03;;;;;;;6.03;2.33;;;20.10;46.50;;;22.54;25.55;101265.25;5256588;28;20079;-83
2022/04/11 07:23:35;;;;;;;4.10;2.63;;;20.40;46.00;;;22.38;25.84;101265.38;5254603;28;20526;-82
2022/04/11 07:26:07;;;;;;;4.38;2.35;;;20.40;46.20;;;22.07;25.91;101258.44;5254120;28;20052;-83
2022/04/11 07:28:41;;;;;;;6.10;2.20;;;20.20;46.00;;;22.22;26.21;101263.69;5254317;28;20062;-83
2022/04/11 07:31:12;;;;;;;6.13;2.40;;;20.20;46.20;;;22.19;26.18;101258.41;5256307;28;20055;-81
2022/04/11 07:33:45;;;;;;;4.35;2.30;;;20.10;46.50;;;22.36;26.04;101267.13;5257882;28;20044;-83
2022/04/11 07:36:17;;;;;;;4.22;2.25;;;20.20;46.40;;;22.69;25.24;101257.16;5260779;28;20045;-83
2022/04/11 07:38:49;;;;;;;5.47;2.42;;;20.50;45.60;;;22.98;25.40;101267.59;5260064;28;20506;-82
2022/04/11 07:41:20;;;;;;;5.13;2.10;;;20.60;45.70;;;23.73;24.49;101269.50;5259938;28;20059;-82
2022/04/11 07:43:54;;;;;;;6.10;2.22;;;21.00;45.10;;;23.91;24.10;101269.28;5261725;28;20052;-83
2022/04/11 07:46:26;;;;;;;3.97;2.20;;;21.30;44.90;;;23.02;25.31;101264.03;5261174;28;20060;-81
2022/04/11 07:48:58;;;;;;;4.03;2.40;;;21.00;45.30;;;23.36;24.51;101264.59;5260292;28;20044;-82
2022/04/11 07:51:30;;;;;;;5.43;2.75;;;21.00;44.50;;;24.12;24.03;101261.91;5259676;28;20199;-82
2022/04/11 07:54:02;;;;;;;4.57;2.13;;;21.30;44.90;;;24.54;23.75;101261.34;5259813;28;20062;-83
2022/04/11 07:56:34;;;;;;;6.47;2.80;;;21.50;44.50;;;25.28;23.06;101257.44;5258987;28;20521;-83
2022/04/11 07:59:08;;;;;;;7.47;2.30;;;21.90;44.20;;;25.89;22.31;101261.63;5260488;28;20150;-82
2022/04/11 08:01:40;;;;;;;4.13;2.30;;;22.40;44.00;;;25.78;22.23;101258.28;5259562;28;20414;-82
2022/04/11 08:04:11;;;;;;;3.53;2.08;;;22.40;43.40;;;25.62;22.19;101253.19;5259264;28;20064;-82
2022/04/11 08:06:43;;;;;;;5.60;2.13;;;22.30;43.00;;;26.28;21.65;101245.59;5259868;28;20079;-82
2022/04/11 08:09:15;;;;;;;4.40;2.33;;;22.60;43.20;;;27.11;21.11;101256.06;5260706;28;20116;-81
2022/04/11 08:11:47;;;;;;;4.57;2.25;;;23.20;42.60;;;27.44;20.69;101248.03;5263558;28;20593;-81
2022/04/11 08:14:21;;;;;;;3.30;2.15;;;23.50;42.00;;;27.68;20.17;101235.78;5266929;28;20049;-81
2022/04/11 08:16:53;;;;;;;5.57;2.53;;;23.80;41.60;;;27.90;20.27;101236.91;5266632;28;20044;-81
2022/04/11 08:19:25;;;;;;;3.58;2.05;;;24.00;41.50;;;28.21;19.57;101242.22;5262134;28;20052;-83
2022/04/11 08:21:57;;;;;;;4.93;2.03;;;24.30;41.10;;;27.12;20.00;101232.88;5255096;28;20053;-83
2022/04/11 08:24:29;;;;;;;4.05;2.25;;;23.80;40.20;;;26.43;20.85;101234.59;5254609;28;20051;-83
2022/04/11 08:27:01;;;;;;;4.45;2.10;;;23.30;40.80;;;26.46;20.93;101227.38;5255183;28;20242;-83
2022/04/11 08:29:34;;;;;;;4.57;2.00;;;23.20;41.40;;;26.13;21.30;101220.09;5254376;28;20100;-83
2022/04/11 08:32:07;;;;;;;6.43;2.58;;;22.90;41.50;;;26.28;21.27;101222.44;5252716;28;20052;-82
2022/04/11 08:34:39;;;;;;;4.32;2.05;;;22.90;41.80;;;26.33;20.99;101214.31;5254768;28;20053;-84
2022/04/11 08:37:11;;;;;;;3.58;2.08;;;23.00;41.40;;;25.89;21.31;101210.88;5253635;28;20346;-82
2022/04/11 08:39:43;;;;;;;4.38;2.15;;;22.80;41.20;;;26.25;21.22;101209.16;5253068;28;20052;-83
2022/04/11 08:42:17;;;;;;;5.40;2.08;;;22.80;41.60;;;24.80;21.91;101220.06;5252932;28;20487;-84
2022/04/11 08:44:52;;;;;;;4.35;2.10;;;22.30;41.10;;;24.96;22.40;101216.19;5253831;28;20098;-83
2022/04/11 08:47:24;;;;;;;4.78;2.10;;;22.10;42.70;;;25.41;22.06;101213.59;5302470;23;20056;-66
2022/04/11 08:49:57;;;;;;;2.80;2.00;;;22.20;42.20;;;25.46;21.53;101209.06;5221378;28;20285;-67
2022/04/11 08:52:31;;;;;;;5.30;2.03;;;22.40;41.40;;;24.80;21.93;101209.38;5226871;28;20078;-67
2022/04/11 08:55:03;;;;;;;3.83;1.85;;;22.00;41.40;;;24.04;22.13;101212.31;5227004;28;20052;-65
2022/04/11 08:57:37;;;;;;;3.45;1.70;;;21.80;41.30;;;24.35;22.55;101206.56;5226970;28;20055;-65
2022/04/11 09:00:13;;;;;;;3.50;1.83;;;21.60;42.30;;;24.61;22.67;101206.16;5226838;28;20052;-67
2022/04/11 09:02:47;;;;;;;4.75;1.63;;;21.80;43.10;;;24.71;21.93;101209.53;5227167;28;20460;-67
2022/04/11 09:05:25;;;;;;;4.68;1.67;;;22.00;41.30;;;24.41;21.80;101206.47;5227212;28;20064;-54
2022/04/11 09:07:59;;;;;;;4.82;1.42;;;21.80;41.20;;;24.00;23.53;101199.09;5226185;28;20207;-52
2022/04/11 09:10:35;;;;;;;;;;;21.70;43.20;;;23.61;23.36;101189.81;5226740;28;20049;-53
2022/04/11 09:13:09;;;;;;;2.30;1.25;;;21.60;42.40;;;23.69;24.17;101193.28;5226545;28;19975;-54
2022/04/11 09:15:45;;;;;;;2.72;1.67;;;21.80;43.30;;;23.08;22.89;101193.94;5226662;28;20075;-54
2022/04/11 09:18:17;;;;;;;3.90;1.50;;;21.70;41.10;;;22.51;22.87;101175.84;5226491;28;20051;-66
2022/04/11 09:20:52;;;;;;;3.58;1.70;;;21.40;40.60;;;21.84;23.40;101174.53;5226514;28;20067;-64
2022/04/11 09:23:24;;;;;;;3.05;1.80;;;21.10;40.80;;;21.42;23.77;101174.69;5226093;28;20055;-66
2022/04/11 09:25:58;;;;;;;2.97;1.65;;;20.80;40.90;;;21.09;24.46;101184.50;5226405;28;20049;-67
2022/04/11 09:28:30;;;;;;;2.47;1.40;;;20.50;41.50;;;19.93;26.58;101172.06;5226365;28;20333;-66
2022/04/11 09:31:08;;;;;;;4.63;1.60;;;19.80;43.30;;;19.56;26.82;101173.72;5226352;28;20425;-67
2022/04/11 09:33:40;;;;;;;2.38;1.45;;;19.50;43.40;;;19.46;25.98;101177.19;5225764;28;20052;-67
2022/04/11 09:36:12;;;;;;;3.33;1.55;;;19.30;42.80;;;19.33;26.31;101173.59;5226379;28;20413;-67
2022/04/11 09:38:44;;;;;;;4.32;1.50;;;19.00;43.00;;;19.13;27.66;101184.06;5226331;28;20532;-66
2022/04/11 09:41:28;;;;;;;3.13;1.23;;;18.80;44.50;;;18.87;27.08;101173.31;5226234;28;20049;-68
2022/04/11 09:44:23;;;;;;;3.53;1.48;;;18.70;43.80;;;18.79;27.56;101161.81;5225602;28;20140;-67
2022/04/11 09:47:00;;;;;;;4.85;1.92;;;18.60;44.50;;;18.84;26.96;101156.56;5225819;28;20045;-67
2022/04/11 09:49:33;;;;;;;6.32;1.55;;;18.50;43.60;;;18.67;26.60;101149.41;5226043;28;20497;-67
2022/04/11 09:52:08;;;;;;;3.28;1.40;;;18.40;43.10;;;18.42;28.06;101157.97;5225514;28;20049;-67
2022/04/11 09:54:43;;;;;;;2.65;1.40;;;18.20;44.60;;;18.54;27.68;101155.44;5225969;28;20049;-68
2022/04/11 09:57:17;;;;;;;4.25;1.63;;;18.20;44.40;;;18.62;28.42;101159.00;5226032;28;20048;-68
2022/04/11 09:59:50;;;;;;;4.07;1.58;;;18.20;45.40;;;18.85;28.71;101140.75;5225812;28;20045;-69
2022/04/11 10:02:24;;;;;;;4.80;1.70;;;18.30;45.90;;;18.70;28.55;101152.06;5225153;28;20056;-65
2022/04/11 10:04:57;;;;;;;3.50;1.92;;;18.30;45.40;;;18.44;28.92;101143.91;5225648;28;20045;-69
2022/04/11 10:07:29;;;;;;;3.00;1.65;;;18.20;45.70;;;18.29;29.38;101158.75;5225846;28;20047;-69
2022/04/11 10:10:02;;;;;;;3.13;1.50;;;18.00;46.20;;;18.09;29.17;101146.25;5225940;28;20049;-67
2022/04/11 10:12:34;;;;;;;3.78;1.42;;;17.90;45.70;;;18.37;28.32;101136.81;5225288;28;20132;-66
2022/04/11 10:15:08;;;;;;;4.18;1.58;;;18.00;45.40;;;18.54;27.79;101134.31;5225630;28;20581;-65
2022/04/11 10:17:42;;;;;;;3.83;1.55;;;18.10;44.80;;;18.41;27.86;101137.72;5225749;28;20052;-66
2022/04/11 10:20:23;;;;;;;2.38;1.42;;;18.00;44.70;;;18.32;27.42;101127.09;5225645;28;20112;-69
2022/04/11 10:23:04;;;;;;;3.33;1.30;;;18.00;43.90;;;18.46;27.68;101117.56;5225363;28;20048;-66
2022/04/11 10:25:45;;;;;;;3.67;1.77;;;18.00;44.50;;;18.46;27.85;101106.09;5225688;28;20071;-66
2022/04/11 10:28:20;;;;;;;2.47;1.27;;;18.10;44.70;;;18.53;28.24;101111.44;5225168;28;20546;-67
2022/04/11 10:31:09;;;;;;;8.63;1.90;;;18.10;45.10;;;18.68;28.51;101111.56;5225532;28;20425;-67
2022/04/11 10:33:51;;;;;;;2.80;1.65;;;18.20;45.50;;;18.70;28.29;101103.66;5225423;28;20045;-68
2022/04/11 10:36:33;;;;;;;3.65;1.60;;;18.30;45.10;;;18.66;28.79;101102.75;5225484;28;20045;-66
2022/04/11 10:39:25;;;;;;;3.83;1.83;;;18.20;45.80;;;18.81;28.15;101101.09;5225638;28;20480;-67
2022/04/11 10:42:13;;;;;;;2.40;1.50;;;18.30;45.20;;;18.88;28.85;101098.47;5224978;28;20045;-68
2022/04/11 10:44:48;;;;;;;4.65;1.98;;;18.30;46.00;;;19.07;28.72;101086.25;5225180;28;20059;-67